Data for 09/09/2014

Time Sea-Level Adjusted Pressure Absolute Pressure Temperature Relative Humidity Dew Point   
(mb) (inHg) (mb) (inHg) (C) (F) (%) (C) (F)
00:05 1015 29.97 844 24.92 15 59 35 -0 31.9
00:10 1015 29.97 844 24.92 15.1 59.2 35 -0.2 31.6
00:15 1015 29.97 844 24.92 15.1 59.1 35 -0.2 31.7
00:20 1015 29.97 844 24.92 15.1 59.2 36 0.2 32.3
00:25 1015 29.97 844 24.92 15 58.9 37 0.6 33
00:30 1015 29.97 844 24.92 14.8 58.7 39 1.2 34.1
00:35 1015 29.97 844 24.92 14.8 58.6 40 1.5 34.8
00:40 1015 29.97 844 24.92 14.8 58.6 40 1.3 34.4
00:45 1015 29.97 844 24.92 14.9 58.8 41 1.9 35.4
00:50 1015 29.97 844 24.92 14.8 58.7 41 1.9 35.4
00:55 1015 29.97 844 24.92 14.8 58.6 43 2.3 36.1
01:00 1015 29.97 844 24.92 14.6 58.3 43 2.2 36
01:05 1015 29.97 844 24.92 13.7 56.6 45 1.9 35.5
01:10 1015 29.97 844 24.92 13.3 56 46 2.1 35.8
01:15 1015 29.97 844 24.92 13.4 56.1 48 2.6 36.6
01:20 1015 29.97 844 24.92 13.4 56.1 51 3.4 38.2
01:25 1015 29.97 844 24.92 13.3 56 52 3.7 38.7
01:30 1015 29.97 845 24.95 13.2 55.7 55 4.3 39.7
01:35 1015 29.97 845 24.95 12.9 55.2 58 4.8 40.7
01:40 1015 29.97 845 24.95 12.4 54.3 60 4.9 40.8
01:45 1016 30 845 24.95 12 53.7 62 4.9 40.9
01:50 1016 30 845 24.95 11.8 53.3 63 4.9 40.9
01:55 1016 30 845 24.95 11.7 53 63 5 41
02:00 1016 30 845 24.95 11.5 52.7 64 5 41
02:05 1016 30 845 24.95 11.2 52.2 66 5.1 41.1
02:10 1016 30 845 24.95 11 51.7 67 5.1 41.2
02:15 1016 30 845 24.95 10.6 51.1 70 5.4 41.7
02:20 1015 29.97 845 24.95 10.5 50.9 69 5.1 41.2
02:25 1016 30 845 24.95 10.2 50.4 70 5 41
02:30 1016 30 845 24.95 10.1 50.2 71 5 41
02:35 1016 30 845 24.95 10.1 50.2 70 4.9 40.8
02:40 1016 30 845 24.95 10.2 50.3 70 5 41
02:45 1016 30 845 24.95 10.1 50.1 69 4.8 40.6
02:50 1016 30 845 24.95 10.2 50.3 70 4.9 40.8
02:55 1016 30 845 24.95 10.1 50.1 70 4.9 40.8
03:00 1016 30 845 24.95 10 50 69 4.6 40.3
03:05 1016 30 845 24.95 9.8 49.7 70 4.7 40.5
03:10 1016 30 845 24.95 9.6 49.4 70 4.5 40.1
03:15 1016 30 845 24.95 9.6 49.3 70 4.4 40
03:20 1016 30 845 24.95 9.5 49.1 71 4.5 40
03:25 1016 30 845 24.95 9.4 48.9 71 4.4 40
03:30 1016 30 845 24.95 9.3 48.7 72 4.4 40
03:35 1016 30 845 24.95 9.1 48.3 72 4.4 39.8
03:40 1016 30 845 24.95 8.9 48 73 4.3 39.8
03:45 1016 30 845 24.95 8.6 47.4 74 4.2 39.5
03:50 1016 30 845 24.95 8.2 46.8 75 4.1 39.3
03:55 1016 30 845 24.95 7.9 46.2 76 3.9 39
04:00 1016 30 845 24.95 7.7 45.8 76 3.8 38.8
04:05 1016 30 845 24.95 7.6 45.7 77 3.8 38.8
04:10 1016 30 845 24.95 7.5 45.5 77 3.7 38.7
04:15 1016 30 845 24.95 7.4 45.4 77 3.7 38.6
04:20 1016 30 846 24.98 7.4 45.3 77 3.6 38.6
04:25 1016 30 845 24.95 7.3 45.2 77 3.6 38.6
04:30 1016 30 845 24.95 7.2 45 78 3.7 38.6
04:35 1016 30 846 24.98 7.2 45 78 3.6 38.6
04:40 1016 30 846 24.98 7.1 44.7 78 3.6 38.4
04:45 1016 30 846 24.98 7 44.7 79 3.6 38.4
04:50 1016 30 846 24.98 7 44.6 78 3.5 38.3
04:55 1016 30 846 24.98 6.9 44.5 79 3.6 38.4
05:00 1016 30 846 24.98 6.8 44.3 79 3.5 38.2
05:05 1017 30.03 846 24.98 6.7 44.1 79 3.4 38.1
05:10 1017 30.03 846 24.98 6.7 44 79 3.4 38.1
05:15 1017 30.03 846 24.98 6.6 43.8 79 3.3 37.9
05:20 1017 30.03 846 24.98 6.4 43.6 80 3.2 37.7
05:25 1017 30.03 846 24.98 6.4 43.4 79 3.1 37.5
05:30 1017 30.03 846 24.98 6.4 43.4 79 3 37.5
05:35 1017 30.03 846 24.98 6.2 43.2 79 2.9 37.2
05:40 1017 30.03 846 24.98 6 42.8 80 2.8 37.1
05:45 1017 30.03 846 24.98 5.8 42.4 81 2.7 36.9
05:50 1017 30.03 846 24.98 5.7 42.2 81 2.6 36.7
05:55 1017 30.03 846 24.98 5.7 42.2 81 2.6 36.7
06:00 1017 30.03 846 24.98 5.6 42.1 80 2.5 36.6
06:05 1017 30.03 846 24.98 5.6 42.1 81 2.6 36.6
06:10 1017 30.03 846 24.98 5.5 41.8 82 2.6 36.7
06:15 1017 30.03 846 24.98 5.4 41.8 82 2.5 36.5
06:20 1017 30.03 846 24.98 5.5 41.9 82 2.6 36.8
06:25 1017 30.03 846 24.98 5.5 41.9 82 2.6 36.7
06:30 1017 30.03 846 24.98 5.6 42.1 80 2.4 36.4
06:35 1017 30.03 846 24.98 5.9 42.6 79 2.5 36.5
06:40 1017 30.03 846 24.98 6.1 43 77 2.4 36.3
06:45 1017 30.03 847 25.01 6.2 43.1 77 2.5 36.5
06:50 1017 30.03 847 25.01 6.1 43.1 76 2.3 36.2
06:55 1018 30.06 847 25.01 6.2 43.2 76 2.3 36.1
07:00 1018 30.06 847 25.01 6.6 43.9 74 2.4 36.3
07:05 1018 30.06 847 25.01 6.7 44 76 2.7 36.9
07:10 1018 30.06 847 25.01 6.3 43.4 77 2.6 36.7
07:15 1018 30.06 847 25.01 6.4 43.4 77 2.6 36.6
07:20 1018 30.06 847 25.01 6.5 43.7 76 2.6 36.6
07:25 1018 30.06 847 25.01 6.5 43.8 75 2.5 36.4
07:30 1018 30.06 847 25.01 6.5 43.7 75 2.5 36.5
07:35 1018 30.06 847 25.01 6.5 43.7 75 2.4 36.3
07:40 1018 30.06 847 25.01 6.5 43.6 76 2.6 36.6
07:45 1018 30.06 847 25.01 6.5 43.7 75 2.4 36.2
07:50 1018 30.06 847 25.01 6.2 43.2 76 2.3 36.2
07:55 1018 30.06 847 25.01 6.3 43.4 76 2.5 36.5
08:00 1018 30.06 847 25.01 6.7 44.1 73 2.3 36.1
08:05 1018 30.06 847 25.01 6.9 44.4 75 2.7 36.9
08:10 1018 30.06 847 25.01 6.8 44.2 74 2.4 36.4
08:15 1018 30.06 847 25.01 6.7 44.1 74 2.5 36.4
08:20 1018 30.06 847 25.01 6.9 44.4 73 2.4 36.3
08:25 1018 30.06 847 25.01 6.8 44.3 73 2.4 36.4
08:30 1018 30.06 847 25.01 6.7 44 74 2.4 36.4
08:35 1018 30.06 847 25.01 6.7 44.1 74 2.4 36.3
08:40 1018 30.06 847 25.01 6.8 44.3 74 2.4 36.4
08:45 1018 30.06 847 25.01 6.8 44.3 73 2.4 36.3
08:50 1018 30.06 847 25.01 6.8 44.2 74 2.4 36.4
08:55 1018 30.06 848 25.04 6.8 44.3 73 2.4 36.3
09:00 1018 30.06 847 25.01 6.9 44.4 73 2.5 36.5
09:05 1018 30.06 847 25.01 6.9 44.5 73 2.5 36.5
09:10 1018 30.06 848 25.04 7 44.7 72 2.4 36.4
09:15 1018 30.06 848 25.04 7.2 45 72 2.5 36.4
09:20 1018 30.06 848 25.04 7.3 45.2 72 2.6 36.6
09:25 1018 30.06 848 25.04 7.1 44.8 72 2.4 36.3
09:30 1018 30.06 848 25.04 7.4 45.2 71 2.4 36.3
09:35 1018 30.06 848 25.04 7.6 45.7 71 2.7 36.9
09:40 1018 30.06 848 25.04 7.7 45.9 70 2.6 36.7
09:45 1018 30.06 848 25.04 7.5 45.5 71 2.7 36.8
09:50 1018 30.06 848 25.04 7.7 45.9 70 2.7 36.8
09:55 1018 30.06 848 25.04 8.1 46.6 69 2.8 37.1
10:00 1018 30.06 848 25.04 8.3 47 68 2.8 37.1
10:05 1018 30.06 848 25.04 8.2 46.7 69 2.9 37.2
10:10 1018 30.06 848 25.04 8 46.4 71 3 37.4
10:15 1018 30.06 848 25.04 8.2 46.7 69 2.8 37
10:20 1018 30.06 847 25.01 8.6 47.6 67 2.9 37.2
10:25 1018 30.06 847 25.01 8.7 47.7 66 2.7 36.9
10:30 1018 30.06 847 25.01 9 48.2 66 3 37.5
10:35 1018 30.06 847 25.01 9.4 48.9 64 2.9 37.2
10:40 1018 30.06 847 25.01 9.8 49.6 63 3.1 37.6
10:45 1018 30.06 847 25.01 9.9 49.9 63 3.2 37.8
10:50 1018 30.06 847 25.01 10.1 50.2 62 3.2 37.8
10:55 1018 30.06 847 25.01 9.9 49.7 64 3.3 38
11:00 1018 30.06 847 25.01 10 50 62 3 37.4
11:05 1018 30.06 847 25.01 10.3 50.6 61 3.2 37.7
11:10 1018 30.06 847 25.01 10.4 50.6 61 3.2 37.8
11:15 1018 30.06 847 25.01 10.9 51.5 59 3.3 37.9
11:20 1018 30.06 847 25.01 11.2 52.1 59 3.5 38.4
11:25 1018 30.06 847 25.01 11.2 52.1 59 3.5 38.3
11:30 1018 30.06 847 25.01 11.7 53.1 56 3.4 38.1
11:35 1018 30.06 847 25.01 11.7 53.1 56 3.4 38.1
11:40 1018 30.06 847 25.01 12.1 53.7 55 3.4 38.1
11:45 1018 30.06 847 25.01 12.3 54.1 56 3.8 38.9
11:50 1018 30.06 847 25.01 11.4 52.6 59 3.6 38.6
11:55 1018 30.06 847 25.01 11.7 53 57 3.6 38.5
12:00 1018 30.06 847 25.01 12.1 53.7 60 4.6 40.2
12:05 1018 30.06 847 25.01 11 51.8 60 3.6 38.5
12:10 1018 30.06 847 25.01 11.6 52.9 56 3.2 37.8
12:15 1018 30.06 847 25.01 12.6 54.6 56 4.2 39.6
12:20 1018 30.06 847 25.01 12.5 54.5 59 4.8 40.6
12:25 1017 30.03 847 25.01 12.4 54.2 56 3.9 39
12:30 1017 30.03 847 25.01 12.6 54.7 56 4.1 39.4
12:35 1017 30.03 847 25.01 13 55.3 54 4 39.2
12:40 1017 30.03 847 25.01 13.4 56.1 56 4.9 40.8
12:45 1017 30.03 847 25.01 13.2 55.8 53 4 39.2
12:50 1017 30.03 847 25.01 13.9 57.1 52 4.4 39.9
12:55 1017 30.03 847 25.01 13.7 56.6 55 4.8 40.7
13:00 1017 30.03 846 24.98 13.6 56.4 52 4.1 39.3
13:05 1017 30.03 846 24.98 14.6 58.4 52 4.9 40.8
13:10 1017 30.03 846 24.98 14.1 57.4 53 4.8 40.7
13:15 1017 30.03 846 24.98 13.8 56.8 55 5 41.1
13:20 1017 30.03 846 24.98 12.9 55.3 59 5.1 41.2
13:25 1017 30.03 846 24.98 13.7 56.6 53 4.3 39.8
13:30 1017 30.03 846 24.98 14.7 58.5 51 4.9 40.8
13:35 1017 30.03 846 24.98 14.8 58.7 55 5.9 42.7
13:40 1017 30.03 846 24.98 13.9 57.1 54 4.9 40.9
13:45 1017 30.03 846 24.98 14.2 57.5 52 4.4 39.9
13:50 1017 30.03 846 24.98 15 58.9 51 5 41
13:55 1017 30.03 846 24.98 15 59.1 53 5.5 41.9
14:00 1017 30.03 846 24.98 14 57.3 55 5.2 41.4
14:05 1017 30.03 846 24.98 13.9 57.1 54 4.8 40.6
14:10 1017 30.03 846 24.98 14.4 57.9 52 4.8 40.7
14:15 1017 30.03 846 24.98 14.6 58.2 52 5 40.9
14:20 1017 30.03 846 24.98 14.7 58.4 52 5.1 41.2
14:25 1017 30.03 846 24.98 14.7 58.4 54 5.7 42.2
14:30 1017 30.03 846 24.98 14.2 57.5 56 5.7 42.2
14:35 1017 30.03 846 24.98 14.4 57.9 55 5.5 41.9
14:40 1017 30.03 846 24.98 14.5 58 54 5.3 41.5
14:45 1017 30.03 846 24.98 14.4 57.9 55 5.7 42.2
14:50 1017 30.03 846 24.98 14.2 57.5 56 5.7 42.2
14:55 1017 30.03 846 24.98 14.1 57.4 55 5.4 41.7
15:00 1017 30.03 846 24.98 14.2 57.6 55 5.4 41.7
15:05 1017 30.03 846 24.98 14 57.2 56 5.4 41.8
15:10 1017 30.03 846 24.98 14.1 57.4 56 5.4 41.8
15:15 1017 30.03 846 24.98 14.2 57.5 55 5.3 41.5
15:20 1017 30.03 846 24.98 14.2 57.5 54 5.1 41.2
15:25 1017 30.03 846 24.98 14.2 57.5 54 5.1 41.2
15:30 1017 30.03 846 24.98 14.2 57.6 54 5.2 41.3
15:35 1017 30.03 846 24.98 14.2 57.5 55 5.3 41.5
15:40 1017 30.03 846 24.98 13.8 56.8 56 5.1 41.2
15:45 1017 30.03 846 24.98 13.4 56 57 5 41.1
15:50 1017 30.03 846 24.98 13.1 55.7 57 4.9 40.8
15:55 1017 30.03 846 24.98 13.1 55.6 56 4.6 40.2
16:00 1017 30.03 846 24.98 13.1 55.5 57 4.7 40.5
16:05 1017 30.03 846 24.98 13 55.4 57 4.7 40.4
16:10 1017 30.03 846 24.98 13.3 56 56 4.7 40.5
16:15 1017 30.03 846 24.98 13.4 56.1 56 4.9 40.9
16:20 1017 30.03 846 24.98 13.5 56.3 54 4.6 40.2
16:25 1017 30.03 846 24.98 13.2 55.8 56 4.8 40.7
16:30 1017 30.03 847 25.01 13 55.3 57 4.6 40.3
16:35 1017 30.03 846 24.98 12.8 55 57 4.6 40.3
16:40 1017 30.03 846 24.98 12.7 54.9 58 4.7 40.5
16:45 1017 30.03 846 24.98 12.6 54.6 58 4.6 40.2
16:50 1017 30.03 847 25.01 12.4 54.3 59 4.5 40.2
16:55 1017 30.03 847 25.01 12.3 54.1 59 4.7 40.4
17:00 1017 30.03 847 25.01 12.3 54.2 60 4.7 40.5
17:05 1018 30.06 847 25.01 12.1 53.7 61 4.8 40.6
17:10 1018 30.06 847 25.01 11.9 53.5 61 4.8 40.6
17:15 1018 30.06 847 25.01 11.7 53.1 62 4.7 40.5
17:20 1018 30.06 847 25.01 11.6 52.8 62 4.7 40.4
17:25 1018 30.06 847 25.01 11.5 52.7 63 4.7 40.5
17:30 1018 30.06 847 25.01 11.3 52.4 64 4.8 40.6
17:35 1018 30.06 847 25.01 11.1 52 65 4.8 40.7
17:40 1018 30.06 847 25.01 11 51.8 65 4.7 40.5
17:45 1018 30.06 847 25.01 10.8 51.4 66 4.7 40.4
17:50 1018 30.06 847 25.01 10.6 51.2 67 4.8 40.6
17:55 1018 30.06 847 25.01 10.5 51 67 4.7 40.5
18:00 1018 30.06 847 25.01 10.4 50.7 68 4.8 40.7
18:05 1018 30.06 848 25.04 10.2 50.3 69 4.9 40.7
18:10 1018 30.06 848 25.04 10 49.9 70 4.8 40.6
18:15 1018 30.06 848 25.04 9.9 49.8 70 4.8 40.6
18:20 1019 30.09 848 25.04 9.7 49.5 71 4.8 40.7
18:25 1019 30.09 848 25.04 9.6 49.2 72 4.9 40.8
18:30 1019 30.09 848 25.04 9.4 49 73 4.8 40.6
18:35 1019 30.09 848 25.04 9.4 48.8 73 4.8 40.7
18:40 1019 30.09 848 25.04 9.3 48.7 73 4.8 40.6
18:45 1019 30.09 848 25.04 9.2 48.5 74 4.8 40.6
18:50 1019 30.09 848 25.04 9.1 48.3 74 4.7 40.5
18:55 1019 30.09 848 25.04 9 48.1 75 4.8 40.6
19:00 1019 30.09 848 25.04 8.9 48 75 4.7 40.5
19:05 1019 30.09 848 25.04 8.8 47.8 75 4.7 40.5
19:10 1019 30.09 848 25.04 8.7 47.7 76 4.7 40.4
19:15 1019 30.09 848 25.04 8.6 47.5 76 4.6 40.3
19:20 1019 30.09 848 25.04 8.6 47.5 76 4.6 40.4
19:25 1019 30.09 848 25.04 8.6 47.4 76 4.7 40.4
19:30 1019 30.09 848 25.04 8.5 47.4 77 4.7 40.5
19:35 1019 30.09 848 25.04 8.5 47.3 77 4.7 40.5
19:40 1019 30.09 848 25.04 8.5 47.3 77 4.8 40.6
19:45 1019 30.09 848 25.04 8.4 47.2 77 4.7 40.5
19:50 1019 30.09 848 25.04 8.4 47.1 78 4.8 40.6
19:55 1019 30.09 848 25.04 8.3 46.9 78 4.8 40.6
20:00 1019 30.09 849 25.07 8.3 46.9 78 4.8 40.6
20:05 1019 30.09 849 25.07 8.3 46.9 79 4.8 40.7
20:10 1019 30.09 849 25.07 8.3 46.9 79 4.8 40.7
20:15 1020 30.12 849 25.07 8.3 46.9 79 4.8 40.7
20:20 1020 30.12 849 25.07 8.3 46.9 79 4.9 40.8
20:25 1020 30.12 849 25.07 8.2 46.7 80 4.9 40.8
20:30 1020 30.12 849 25.07 8.2 46.7 80 4.9 40.9
20:35 1020 30.12 849 25.07 8.1 46.6 80 5 40.9
20:40 1020 30.12 849 25.07 8.1 46.5 81 5 40.9
20:45 1020 30.12 849 25.07 8 46.4 81 5 41
20:50 1020 30.12 849 25.07 8 46.4 81 5 41
20:55 1020 30.12 849 25.07 7.9 46.2 82 5 41.1
21:00 1020 30.12 849 25.07 7.8 46.1 82 5 41.1
21:05 1020 30.12 849 25.07 7.8 46 83 5 41
21:10 1020 30.12 849 25.07 7.8 46 83 5 41
21:15 1020 30.12 849 25.07 7.7 45.9 83 5 41
21:20 1020 30.12 849 25.07 7.7 45.8 83 4.9 40.8
21:25 1020 30.12 849 25.07 7.6 45.7 83 4.9 40.8
21:30 1020 30.12 849 25.07 7.6 45.7 82 4.8 40.7
21:35 1020 30.12 849 25.07 7.6 45.6 82 4.7 40.4
21:40 1020 30.12 850 25.1 7.5 45.5 82 4.6 40.2
21:45 1020 30.12 850 25.1 7.4 45.3 82 4.5 40
21:50 1020 30.12 850 25.1 7.3 45.1 81 4.3 39.8
21:55 1020 30.12 849 25.07 7.2 45 81 4.2 39.6
22:00 1020 30.12 849 25.07 7.2 44.9 81 4.2 39.5
22:05 1020 30.12 850 25.1 7.1 44.8 81 4.1 39.3
22:10 1020 30.12 850 25.1 7.1 44.9 80 3.9 39
22:15 1020 30.12 850 25.1 7.1 44.8 80 3.9 39
22:20 1020 30.12 850 25.1 7.2 44.9 79 3.7 38.7
22:25 1020 30.12 850 25.1 7.1 44.8 79 3.7 38.6
22:30 1020 30.12 850 25.1 7 44.6 78 3.5 38.3
22:35 1020 30.12 849 25.07 7 44.6 77 3.3 38
22:40 1020 30.12 850 25.1 6.9 44.5 77 3.2 37.7
22:45 1020 30.12 850 25.1 6.9 44.4 77 3.1 37.7
22:50 1020 30.12 850 25.1 6.8 44.2 77 3 37.4
22:55 1020 30.12 849 25.07 6.7 44 78 3 37.5
23:00 1020 30.12 850 25.1 6.5 43.8 78 3 37.3
23:05 1020 30.12 849 25.07 6.4 43.5 78 2.9 37.2
23:10 1020 30.12 849 25.07 6.4 43.4 79 2.9 37.2
23:15 1020 30.12 850 25.1 6.3 43.4 78 2.8 37.1
23:20 1020 30.12 850 25.1 6.4 43.5 78 2.8 37
23:25 1020 30.12 850 25.1 6.4 43.5 78 2.8 37.1
23:30 1020 30.12 850 25.1 6.4 43.4 78 2.9 37.1
23:35 1020 30.12 850 25.1 6.3 43.4 78 2.8 37.1
23:40 1020 30.12 850 25.1 6.3 43.4 78 2.8 37
23:45 1020 30.12 850 25.1 6.3 43.4 78 2.7 36.9
23:50 1020 30.12 850 25.1 6.3 43.4 77 2.7 36.8
23:55 1021 30.15 850 25.1 6.3 43.4 77 2.7 36.8
24:00 1021 30.15 850 25.1 6.3 43.3 78 2.7 36.8